SNOW

Not for real navigation. The accuracy of this data is not assured See disclaimer for more information



ICAO NAME COUNTRY WIND Kt GUST Kt VIS m TEMP/DEW C BARO METAR
NZSP Amundsen-Scott South Pole Stat Antarctica 15 22 800 -42/0 29.18 NZSP 181150Z 01015G22KT 0800 -SG BLSN SCT000 BKN010 OVC060 M42/ A2918 RMK BLSN SCT000 CLN AIR 01016G
KLMO 0 0 1600 14/13 30.12 KLMO 181235Z AUTO 00000KT 1 0.25SM -SN BKN008 OVC012 14/13 A3012 RMK AO2 T01400130
SCRM 12 0 5000 -7/-8 29.15 SCRM 181200Z 10012KT 5000 -SN OVC015 M07/M08 Q0987
NZCM Williams Field Antarctica 12 28 9999 -11/-20 29.46 NZCM 181155Z 13012G28KT 9999 BKN070 OVC120 M11/M20 A2946 RMK PK WND 17029/0648 SNE0720 SLP983
KCPW Pagosa Springs, Wolf Creek Pas CO United States 17 25 9999 2/2 30.47 KCPW 181230Z AUTO 19017G25KT M0.25SM -SN OVC002 02/02 A3047 RMK AO2

Show more